메인 페이지
METAR-TAF:

METAR-TAF

공항 :

루안다 콰트루 드 페베레이루 공항

루안다, 앙골라

위도: 08-51S, 경도: 013-14E, 고도: 74m

현재 날씨관측

예보는 1 시간 9분 전, 15:00시(UTC)에 발표되었습니다.
서남서10kt
온도 29°C
습도 70%
기압 1011 hPa
시정 10km 이상
고도 2000ft 상공 구름 조금
고도 2300ft 상공 구름 조금, 적란운.
고도 8000ft 상공 구름 많음

METAR: FNLU 181500Z 24010KT 9999 FEW020 FEW023CB BKN080 29/23 Q1011

시각: 17:09 (16:09 UTC)

예보

예보는 5 시간 9분 전, 11:00시(UTC)에 발표되었습니다.
예보 대상 시간: 18일 12시부터 19일 18시까지 (UTC)
10kt
시정 10km 이상
고도 2200ft 상공 구름 조금
고도 2500ft 상공 구름 조금, 적란운.
고도 3000ft 상공 구름 보통
전환 중
18일 19시부터 18일 21시까지 (UTC)
5kt
일시적
19일 04시부터 19일 08시까지 (UTC)
여러 방향의 바람 3kt
시정: 8000m
고도 2000ft 상공 구름 보통
고도 5000ft 상공 구름 많음

TAF: FNLU 181100Z 1812/1918 27010KT 9999 FEW022 FEW025CB SCT030 BECMG 1819/1821 18005KT TEMPO 1904/1908 VRB03KT 8000 SCT020 BKN050

4,000개 이상의 공항 관측 자료 및 예보 (METAR 및 TAF 보고).

지도상에서 검색 가능한 기상관측소가 노란 점과 빨간 점으로 표시되어 있습니다.

기상관측소 명을 보려면 표시 위로 마우스를 이동하세요.

날씨 관측과 예보를 보려면 클릭하세요.

지도 변경 : 확대하려면 엑스 표시가 있는 녹색 버튼, 축소하려면 빼기 표시가 있는 녹색 버튼, 다음 페이지의 지도를 보려면 녹색 화살표를 클릭하세요.


METAR-TAF: